Helena Kosan — MQWF3 — position and weather

sailwx.info

Track history (hours):
 
Tides and Currents Weather Stations Pressure Air Temp Water Temp Dewpoint Dewpoint Depression Visibility Wind Speed Wind Dir Waves Ship Positions

Helena Kosan

Last reported at 2017-Oct-15 16:58 UTC. Time now 2017-Oct-17 13:50 UTC.
Position N 29°34' W 094°55'.

Length 115 m; draft 6.4 m.

Type: Ship (hazmat cat D). MMSI: 235053771.

Date/timePositionNaut miles runAvg speedWind from/ knotsBaromVisibWave heightAir tempDewpointWater temp
2017-Oct-15 16:58N 29°34' W 094°55'713.3
2017-Oct-15 16:28N 29°40' W 094°58'6 0.2
2017-Oct-14 03:10N 29°44' W 095°03'3 7.8
2017-Oct-14 02:49N 29°42' W 095°01'412.2
2017-Oct-14 02:30N 29°39' W 094°58'  
2017-Oct-10 20:39N 29°34' W 094°55'215.9
2017-Oct-10 20:30N 29°36' W 094°57'19 0.4
2017-Oct-09 00:06N 29°44' W 095°17'0 0.0
2017-Oct-09 00:00N 29°44' W 095°17'1 1.4
2017-Oct-08 23:30N 29°44' W 095°16'3 5.3
2017-Oct-08 22:59N 29°43' W 095°13'9 5.9
2017-Oct-08 21:29N 29°44' W 095°03'4 9.1
2017-Oct-08 21:00N 29°41' W 094°59'714.3
2017-Oct-08 20:30N 29°35' W 094°56'  
Track history (hours):
 
Tides and Currents Weather Stations Pressure Air Temp Water Temp Dewpoint Dewpoint Depression Visibility Wind Speed Wind Dir Waves Ship Positions

Helena Kosan

Last reported at 2017-Oct-15 16:58 UTC. Time now 2017-Oct-17 13:50 UTC.
Position N 29°34' W 094°55'.

Length 115 m; draft 6.4 m.

Type: Ship (hazmat cat D). MMSI: 235053771.

Date/timePositionNaut miles runAvg speedWind from/ knotsBaromVisibWave heightAir tempDewpointWater temp
2017-Oct-15 16:58N 29°34' W 094°55'713.3
2017-Oct-15 16:28N 29°40' W 094°58'6 0.2
2017-Oct-14 03:10N 29°44' W 095°03'3 7.8
2017-Oct-14 02:49N 29°42' W 095°01'412.2
2017-Oct-14 02:30N 29°39' W 094°58'  
2017-Oct-10 20:39N 29°34' W 094°55'215.9
2017-Oct-10 20:30N 29°36' W 094°57'19 0.4
2017-Oct-09 00:06N 29°44' W 095°17'0 0.0
2017-Oct-09 00:00N 29°44' W 095°17'1 1.4
2017-Oct-08 23:30N 29°44' W 095°16'3 5.3
2017-Oct-08 22:59N 29°43' W 095°13'9 5.9
2017-Oct-08 21:29N 29°44' W 095°03'4 9.1
2017-Oct-08 21:00N 29°41' W 094°59'714.3
2017-Oct-08 20:30N 29°35' W 094°56'  

Dump ship's entire track history